Aviation Digital Data Service (ADDS)

Output produced by METARs form (0606 UTC 25 June 2018)
found at http://www.aviationweather.gov/adds/metars/
 
GUCY 250400Z VRB02KT 9999 BKN015 BKN110 24/23 Q1011 NOSIG
TAF GUCY 242300Z 2500/2606 27006KT 9999 SCT015 SCT110 
     TEMPO 2504/2510 18010KT 4000 TSRA BKN013 FEW023CB OVC100 
     BECMG 2516/2520 8000 -TSRA SCT013 FEW023CB BKN110